sensor_id;sensor_type;location;lat;lon;timestamp;temperature;humidity
39493;DHT22;25176;51.060;3.720;2023-06-10T00:00:11;23.90;63.90
39493;DHT22;25176;51.060;3.720;2023-06-10T00:02:38;23.90;64.00
39493;DHT22;25176;51.060;3.720;2023-06-10T00:05:04;23.80;64.10
39493;DHT22;25176;51.060;3.720;2023-06-10T00:07:30;23.80;64.20
39493;DHT22;25176;51.060;3.720;2023-06-10T00:09:55;23.80;64.30
39493;DHT22;25176;51.060;3.720;2023-06-10T00:12:21;23.80;64.30
39493;DHT22;25176;51.060;3.720;2023-06-10T00:14:46;23.80;64.30
39493;DHT22;25176;51.060;3.720;2023-06-10T00:17:15;23.70;64.30
39493;DHT22;25176;51.060;3.720;2023-06-10T00:19:40;23.60;64.60
39493;DHT22;25176;51.060;3.720;2023-06-10T00:22:06;23.50;64.70
39493;DHT22;25176;51.060;3.720;2023-06-10T00:24:31;23.50;64.70
39493;DHT22;25176;51.060;3.720;2023-06-10T00:26:57;23.50;64.60
39493;DHT22;25176;51.060;3.720;2023-06-10T00:29:22;23.50;64.70
39493;DHT22;25176;51.060;3.720;2023-06-10T00:31:48;23.50;64.50
39493;DHT22;25176;51.060;3.720;2023-06-10T00:34:13;23.50;64.60
39493;DHT22;25176;51.060;3.720;2023-06-10T00:36:39;23.50;64.60
39493;DHT22;25176;51.060;3.720;2023-06-10T00:39:05;23.50;64.60
39493;DHT22;25176;51.060;3.720;2023-06-10T00:41:30;23.50;64.50
39493;DHT22;25176;51.060;3.720;2023-06-10T00:43:56;23.50;64.50
39493;DHT22;25176;51.060;3.720;2023-06-10T00:46:22;23.50;64.50
39493;DHT22;25176;51.060;3.720;2023-06-10T00:48:48;23.50;64.30
39493;DHT22;25176;51.060;3.720;2023-06-10T00:51:15;23.50;64.60
39493;DHT22;25176;51.060;3.720;2023-06-10T00:53:41;23.40;64.50
39493;DHT22;25176;51.060;3.720;2023-06-10T00:56:07;23.50;64.50
39493;DHT22;25176;51.060;3.720;2023-06-10T00:58:32;23.50;64.70
39493;DHT22;25176;51.060;3.720;2023-06-10T01:00:58;23.50;64.70
39493;DHT22;25176;51.060;3.720;2023-06-10T01:03:24;23.40;64.60
39493;DHT22;25176;51.060;3.720;2023-06-10T01:11:00;23.20;65.00
39493;DHT22;25176;51.060;3.720;2023-06-10T01:13:27;23.10;65.10
39493;DHT22;25176;51.060;3.720;2023-06-10T01:15:57;23.10;65.20
39493;DHT22;25176;51.060;3.720;2023-06-10T01:18:23;23.10;65.20
39493;DHT22;25176;51.060;3.720;2023-06-10T01:20:49;23.00;65.40
39493;DHT22;25176;51.060;3.720;2023-06-10T01:23:15;23.00;65.40
39493;DHT22;25176;51.060;3.720;2023-06-10T01:25:45;22.90;65.50
39493;DHT22;25176;51.060;3.720;2023-06-10T01:28:17;22.80;65.60
39493;DHT22;25176;51.060;3.720;2023-06-10T01:33:17;22.80;66.00
39493;DHT22;25176;51.060;3.720;2023-06-10T01:35:43;22.80;66.10
39493;DHT22;25176;51.060;3.720;2023-06-10T01:38:08;22.70;66.30
39493;DHT22;25176;51.060;3.720;2023-06-10T01:40:35;22.70;66.40
39493;DHT22;25176;51.060;3.720;2023-06-10T01:43:01;22.70;66.70
39493;DHT22;25176;51.060;3.720;2023-06-10T01:45:27;22.60;66.80
39493;DHT22;25176;51.060;3.720;2023-06-10T01:47:52;22.60;67.00
39493;DHT22;25176;51.060;3.720;2023-06-10T01:50:18;22.50;67.10
39493;DHT22;25176;51.060;3.720;2023-06-10T01:52:43;22.50;67.30
39493;DHT22;25176;51.060;3.720;2023-06-10T01:55:09;22.60;67.40
39493;DHT22;25176;51.060;3.720;2023-06-10T01:57:34;22.50;67.60
39493;DHT22;25176;51.060;3.720;2023-06-10T02:00:00;22.40;67.70
39493;DHT22;25176;51.060;3.720;2023-06-10T02:02:25;22.40;67.90
39493;DHT22;25176;51.060;3.720;2023-06-10T02:04:50;22.40;68.00
39493;DHT22;25176;51.060;3.720;2023-06-10T02:07:16;22.40;68.10
39493;DHT22;25176;51.060;3.720;2023-06-10T02:09:41;22.40;68.20
39493;DHT22;25176;51.060;3.720;2023-06-10T02:12:07;22.30;68.40
39493;DHT22;25176;51.060;3.720;2023-06-10T02:14:33;22.40;68.50
39493;DHT22;25176;51.060;3.720;2023-06-10T02:16:58;22.30;68.50
39493;DHT22;25176;51.060;3.720;2023-06-10T02:19:24;22.30;68.80
39493;DHT22;25176;51.060;3.720;2023-06-10T02:21:52;22.30;68.80
39493;DHT22;25176;51.060;3.720;2023-06-10T02:24:18;22.20;69.10
39493;DHT22;25176;51.060;3.720;2023-06-10T02:26:43;22.10;69.30
39493;DHT22;25176;51.060;3.720;2023-06-10T02:29:09;22.10;69.40
39493;DHT22;25176;51.060;3.720;2023-06-10T02:31:34;22.10;69.50
39493;DHT22;25176;51.060;3.720;2023-06-10T02:34:01;22.10;69.60
39493;DHT22;25176;51.060;3.720;2023-06-10T02:36:26;22.20;69.60
39493;DHT22;25176;51.060;3.720;2023-06-10T02:38:53;22.10;69.70
39493;DHT22;25176;51.060;3.720;2023-06-10T02:41:18;22.10;69.90
39493;DHT22;25176;51.060;3.720;2023-06-10T02:43:44;22.00;70.10
39493;DHT22;25176;51.060;3.720;2023-06-10T02:46:09;22.00;70.20
39493;DHT22;25176;51.060;3.720;2023-06-10T02:48:42;22.00;70.40
39493;DHT22;25176;51.060;3.720;2023-06-10T02:51:10;22.00;70.40
39493;DHT22;25176;51.060;3.720;2023-06-10T02:53:36;22.00;70.40
39493;DHT22;25176;51.060;3.720;2023-06-10T02:56:01;22.00;70.60
39493;DHT22;25176;51.060;3.720;2023-06-10T02:58:27;21.90;70.70
39493;DHT22;25176;51.060;3.720;2023-06-10T03:00:52;21.90;71.00
39493;DHT22;25176;51.060;3.720;2023-06-10T03:03:18;21.80;71.10
39493;DHT22;25176;51.060;3.720;2023-06-10T03:05:43;21.80;71.00
39493;DHT22;25176;51.060;3.720;2023-06-10T03:08:09;21.90;70.90
39493;DHT22;25176;51.060;3.720;2023-06-10T03:10:35;21.90;71.00
39493;DHT22;25176;51.060;3.720;2023-06-10T03:13:00;21.90;71.00
39493;DHT22;25176;51.060;3.720;2023-06-10T03:15:26;21.90;71.60
39493;DHT22;25176;51.060;3.720;2023-06-10T03:17:54;21.80;71.40
39493;DHT22;25176;51.060;3.720;2023-06-10T03:20:20;21.80;71.50
39493;DHT22;25176;51.060;3.720;2023-06-10T03:22:46;21.90;71.40
39493;DHT22;25176;51.060;3.720;2023-06-10T03:25:12;21.90;71.60
39493;DHT22;25176;51.060;3.720;2023-06-10T03:27:39;21.70;71.90
39493;DHT22;25176;51.060;3.720;2023-06-10T03:30:05;21.80;72.00
39493;DHT22;25176;51.060;3.720;2023-06-10T03:32:31;21.70;72.20
39493;DHT22;25176;51.060;3.720;2023-06-10T03:34:56;21.70;72.30
39493;DHT22;25176;51.060;3.720;2023-06-10T03:37:22;21.70;72.10
39493;DHT22;25176;51.060;3.720;2023-06-10T03:39:47;21.60;72.30
39493;DHT22;25176;51.060;3.720;2023-06-10T03:42:13;21.70;72.30
39493;DHT22;25176;51.060;3.720;2023-06-10T03:44:38;21.60;72.60
39493;DHT22;25176;51.060;3.720;2023-06-10T03:47:04;21.60;72.70
39493;DHT22;25176;51.060;3.720;2023-06-10T03:49:30;21.70;72.50
39493;DHT22;25176;51.060;3.720;2023-06-10T03:51:55;21.70;72.70
39493;DHT22;25176;51.060;3.720;2023-06-10T03:54:21;21.80;72.40
39493;DHT22;25176;51.060;3.720;2023-06-10T03:56:46;21.80;72.40
39493;DHT22;25176;51.060;3.720;2023-06-10T03:59:13;21.70;72.70
39493;DHT22;25176;51.060;3.720;2023-06-10T04:01:39;21.80;72.70
39493;DHT22;25176;51.060;3.720;2023-06-10T04:04:06;21.60;73.10
39493;DHT22;25176;51.060;3.720;2023-06-10T04:06:31;21.70;72.90
39493;DHT22;25176;51.060;3.720;2023-06-10T04:08:57;21.70;73.20
39493;DHT22;25176;51.060;3.720;2023-06-10T04:11:26;21.70;73.10
39493;DHT22;25176;51.060;3.720;2023-06-10T04:13:51;21.80;72.90
39493;DHT22;25176;51.060;3.720;2023-06-10T04:16:17;21.80;73.20
39493;DHT22;25176;51.060;3.720;2023-06-10T04:18:42;21.70;73.40
39493;DHT22;25176;51.060;3.720;2023-06-10T04:21:08;21.70;73.50
39493;DHT22;25176;51.060;3.720;2023-06-10T04:23:34;21.70;73.80
39493;DHT22;25176;51.060;3.720;2023-06-10T04:26:00;21.70;74.00
39493;DHT22;25176;51.060;3.720;2023-06-10T04:28:26;21.80;73.60
39493;DHT22;25176;51.060;3.720;2023-06-10T04:30:52;21.80;73.70
39493;DHT22;25176;51.060;3.720;2023-06-10T04:33:17;21.80;73.70
39493;DHT22;25176;51.060;3.720;2023-06-10T04:35:43;21.90;73.50
39493;DHT22;25176;51.060;3.720;2023-06-10T04:38:08;22.10;72.90
39493;DHT22;25176;51.060;3.720;2023-06-10T04:40:34;21.80;73.30
39493;DHT22;25176;51.060;3.720;2023-06-10T04:42:59;21.70;73.90
39493;DHT22;25176;51.060;3.720;2023-06-10T04:45:25;21.90;73.80
39493;DHT22;25176;51.060;3.720;2023-06-10T04:47:50;21.90;73.70
39493;DHT22;25176;51.060;3.720;2023-06-10T04:50:16;21.80;74.00
39493;DHT22;25176;51.060;3.720;2023-06-10T04:52:41;21.90;73.80
39493;DHT22;25176;51.060;3.720;2023-06-10T04:55:07;21.90;73.80
39493;DHT22;25176;51.060;3.720;2023-06-10T04:57:32;21.70;74.10
39493;DHT22;25176;51.060;3.720;2023-06-10T04:59:58;21.60;74.90
39493;DHT22;25176;51.060;3.720;2023-06-10T05:02:23;21.60;74.80
39493;DHT22;25176;51.060;3.720;2023-06-10T05:04:49;21.50;75.10
39493;DHT22;25176;51.060;3.720;2023-06-10T05:07:14;21.70;75.20
39493;DHT22;25176;51.060;3.720;2023-06-10T05:09:40;21.80;74.60
39493;DHT22;25176;51.060;3.720;2023-06-10T05:12:05;21.80;75.30
39493;DHT22;25176;51.060;3.720;2023-06-10T05:14:31;21.80;74.70
39493;DHT22;25176;51.060;3.720;2023-06-10T05:16:57;21.80;74.90
39493;DHT22;25176;51.060;3.720;2023-06-10T05:19:22;21.90;74.80
39493;DHT22;25176;51.060;3.720;2023-06-10T05:21:48;21.80;75.30
39493;DHT22;25176;51.060;3.720;2023-06-10T05:24:13;21.70;75.70
39493;DHT22;25176;51.060;3.720;2023-06-10T05:26:39;21.60;75.90
39493;DHT22;25176;51.060;3.720;2023-06-10T05:29:05;21.70;76.10
39493;DHT22;25176;51.060;3.720;2023-06-10T05:31:30;21.70;75.80
39493;DHT22;25176;51.060;3.720;2023-06-10T05:33:56;21.70;76.00
39493;DHT22;25176;51.060;3.720;2023-06-10T05:36:21;21.70;75.90
39493;DHT22;25176;51.060;3.720;2023-06-10T05:38:47;21.80;75.70
39493;DHT22;25176;51.060;3.720;2023-06-10T05:41:13;21.80;75.70
39493;DHT22;25176;51.060;3.720;2023-06-10T05:43:38;21.80;75.70
39493;DHT22;25176;51.060;3.720;2023-06-10T05:46:04;22.00;75.30
39493;DHT22;25176;51.060;3.720;2023-06-10T05:48:29;21.80;75.10
39493;DHT22;25176;51.060;3.720;2023-06-10T05:50:55;21.90;75.30
39493;DHT22;25176;51.060;3.720;2023-06-10T05:53:20;22.10;75.00
39493;DHT22;25176;51.060;3.720;2023-06-10T05:55:46;22.10;74.70
39493;DHT22;25176;51.060;3.720;2023-06-10T05:58:12;22.10;74.40
39493;DHT22;25176;51.060;3.720;2023-06-10T06:00:38;22.10;74.40
39493;DHT22;25176;51.060;3.720;2023-06-10T06:03:06;22.20;74.50
39493;DHT22;25176;51.060;3.720;2023-06-10T06:05:31;22.20;74.40
39493;DHT22;25176;51.060;3.720;2023-06-10T06:08:01;22.20;74.30
39493;DHT22;25176;51.060;3.720;2023-06-10T06:10:26;22.30;74.40
39493;DHT22;25176;51.060;3.720;2023-06-10T06:12:52;22.30;74.30
39493;DHT22;25176;51.060;3.720;2023-06-10T06:15:17;22.40;74.10
39493;DHT22;25176;51.060;3.720;2023-06-10T06:17:43;22.50;74.00
39493;DHT22;25176;51.060;3.720;2023-06-10T06:20:08;22.50;73.60
39493;DHT22;25176;51.060;3.720;2023-06-10T06:22:34;22.50;73.70
39493;DHT22;25176;51.060;3.720;2023-06-10T06:25:00;22.50;73.80
39493;DHT22;25176;51.060;3.720;2023-06-10T06:27:25;22.70;73.60
39493;DHT22;25176;51.060;3.720;2023-06-10T06:29:50;22.80;73.40
39493;DHT22;25176;51.060;3.720;2023-06-10T06:32:16;23.00;72.90
39493;DHT22;25176;51.060;3.720;2023-06-10T06:34:41;23.30;72.50
39493;DHT22;25176;51.060;3.720;2023-06-10T06:37:07;23.30;71.80
39493;DHT22;25176;51.060;3.720;2023-06-10T06:39:33;23.40;71.20
39493;DHT22;25176;51.060;3.720;2023-06-10T06:41:58;23.50;71.40
39493;DHT22;25176;51.060;3.720;2023-06-10T06:44:24;24.30;70.30
39493;DHT22;25176;51.060;3.720;2023-06-10T06:46:49;25.40;67.80
39493;DHT22;25176;51.060;3.720;2023-06-10T06:49:15;26.20;65.20
39493;DHT22;25176;51.060;3.720;2023-06-10T06:51:40;27.50;63.60
39493;DHT22;25176;51.060;3.720;2023-06-10T06:54:05;27.70;62.10
39493;DHT22;25176;51.060;3.720;2023-06-10T06:56:31;27.60;61.10
39493;DHT22;25176;51.060;3.720;2023-06-10T06:58:56;27.60;61.10
39493;DHT22;25176;51.060;3.720;2023-06-10T07:01:22;28.00;60.40
39493;DHT22;25176;51.060;3.720;2023-06-10T07:03:47;29.10;60.40
39493;DHT22;25176;51.060;3.720;2023-06-10T07:06:13;30.10;57.90
39493;DHT22;25176;51.060;3.720;2023-06-10T07:08:38;31.40;55.20
39493;DHT22;25176;51.060;3.720;2023-06-10T07:11:04;30.80;55.60
39493;DHT22;25176;51.060;3.720;2023-06-10T07:13:29;31.30;55.00
39493;DHT22;25176;51.060;3.720;2023-06-10T07:15:55;31.10;55.00
39493;DHT22;25176;51.060;3.720;2023-06-10T07:18:20;31.90;54.80
39493;DHT22;25176;51.060;3.720;2023-06-10T07:20:46;33.10;53.50
39493;DHT22;25176;51.060;3.720;2023-06-10T07:23:11;32.90;52.40
39493;DHT22;25176;51.060;3.720;2023-06-10T07:25:37;33.60;52.10
39493;DHT22;25176;51.060;3.720;2023-06-10T07:28:02;34.80;50.50
39493;DHT22;25176;51.060;3.720;2023-06-10T07:30:28;33.90;51.90
39493;DHT22;25176;51.060;3.720;2023-06-10T07:32:53;35.20;50.60
39493;DHT22;25176;51.060;3.720;2023-06-10T07:35:21;35.40;48.80
39493;DHT22;25176;51.060;3.720;2023-06-10T07:37:46;35.50;49.70
39493;DHT22;25176;51.060;3.720;2023-06-10T07:40:12;35.70;48.10
39493;DHT22;25176;51.060;3.720;2023-06-10T07:42:37;34.50;50.10
39493;DHT22;25176;51.060;3.720;2023-06-10T07:45:03;34.70;50.30
39493;DHT22;25176;51.060;3.720;2023-06-10T07:47:29;34.30;50.50
39493;DHT22;25176;51.060;3.720;2023-06-10T07:49:55;34.90;50.20
39493;DHT22;25176;51.060;3.720;2023-06-10T07:52:20;36.00;48.30
39493;DHT22;25176;51.060;3.720;2023-06-10T07:54:46;37.00;48.50
39493;DHT22;25176;51.060;3.720;2023-06-10T07:57:11;36.20;47.70
39493;DHT22;25176;51.060;3.720;2023-06-10T07:59:37;37.10;48.00
39493;DHT22;25176;51.060;3.720;2023-06-10T08:02:03;37.20;47.50
39493;DHT22;25176;51.060;3.720;2023-06-10T08:04:28;38.80;46.50
39493;DHT22;25176;51.060;3.720;2023-06-10T08:06:56;37.70;45.80
39493;DHT22;25176;51.060;3.720;2023-06-10T08:09:21;39.50;46.00
39493;DHT22;25176;51.060;3.720;2023-06-10T08:11:48;40.70;43.60
39493;DHT22;25176;51.060;3.720;2023-06-10T08:14:13;38.00;44.60
39493;DHT22;25176;51.060;3.720;2023-06-10T08:16:39;36.80;45.50
39493;DHT22;25176;51.060;3.720;2023-06-10T08:19:04;36.20;47.00
39493;DHT22;25176;51.060;3.720;2023-06-10T08:21:30;36.90;45.40
39493;DHT22;25176;51.060;3.720;2023-06-10T08:23:56;37.30;45.10
39493;DHT22;25176;51.060;3.720;2023-06-10T08:26:22;36.00;45.80
39493;DHT22;25176;51.060;3.720;2023-06-10T08:28:47;35.60;46.70
39493;DHT22;25176;51.060;3.720;2023-06-10T08:31:13;36.70;47.00
39493;DHT22;25176;51.060;3.720;2023-06-10T08:33:39;38.80;44.30
39493;DHT22;25176;51.060;3.720;2023-06-10T08:36:04;39.00;44.10
39493;DHT22;25176;51.060;3.720;2023-06-10T08:38:30;38.90;44.10
39493;DHT22;25176;51.060;3.720;2023-06-10T08:40:56;40.70;43.10
39493;DHT22;25176;51.060;3.720;2023-06-10T08:43:23;38.50;42.90
39493;DHT22;25176;51.060;3.720;2023-06-10T08:45:51;39.80;43.00
39493;DHT22;25176;51.060;3.720;2023-06-10T08:48:19;40.10;42.10
39493;DHT22;25176;51.060;3.720;2023-06-10T08:50:44;39.00;42.70
39493;DHT22;25176;51.060;3.720;2023-06-10T08:53:10;39.40;41.80
39493;DHT22;25176;51.060;3.720;2023-06-10T08:55:38;37.90;43.00
39493;DHT22;25176;51.060;3.720;2023-06-10T08:58:04;39.00;43.10
39493;DHT22;25176;51.060;3.720;2023-06-10T09:00:30;39.20;42.90
39493;DHT22;25176;51.060;3.720;2023-06-10T09:02:56;39.00;42.10
39493;DHT22;25176;51.060;3.720;2023-06-10T09:05:22;38.20;43.30
39493;DHT22;25176;51.060;3.720;2023-06-10T09:07:48;39.50;42.20
39493;DHT22;25176;51.060;3.720;2023-06-10T09:10:13;39.20;42.60
39493;DHT22;25176;51.060;3.720;2023-06-10T09:12:39;40.80;42.00
39493;DHT22;25176;51.060;3.720;2023-06-10T09:15:05;40.80;41.30
39493;DHT22;25176;51.060;3.720;2023-06-10T09:17:31;42.50;40.80
39493;DHT22;25176;51.060;3.720;2023-06-10T09:19:57;43.40;39.80
39493;DHT22;25176;51.060;3.720;2023-06-10T09:22:23;41.60;40.30
39493;DHT22;25176;51.060;3.720;2023-06-10T09:24:48;40.60;41.60
39493;DHT22;25176;51.060;3.720;2023-06-10T09:27:14;42.20;40.40
39493;DHT22;25176;51.060;3.720;2023-06-10T09:32:12;44.20;39.30
39493;DHT22;25176;51.060;3.720;2023-06-10T09:34:37;42.00;39.60
39493;DHT22;25176;51.060;3.720;2023-06-10T09:37:03;42.50;40.10
39493;DHT22;25176;51.060;3.720;2023-06-10T09:39:29;41.90;39.70
39493;DHT22;25176;51.060;3.720;2023-06-10T09:41:54;40.20;41.30
39493;DHT22;25176;51.060;3.720;2023-06-10T09:44:20;43.00;40.60
39493;DHT22;25176;51.060;3.720;2023-06-10T09:46:46;43.40;38.80
39493;DHT22;25176;51.060;3.720;2023-06-10T09:49:12;41.80;40.10
39493;DHT22;25176;51.060;3.720;2023-06-10T09:51:39;41.20;40.00
39493;DHT22;25176;51.060;3.720;2023-06-10T09:54:13;40.20;41.10
39493;DHT22;25176;51.060;3.720;2023-06-10T09:56:39;39.80;40.80
39493;DHT22;25176;51.060;3.720;2023-06-10T09:59:08;39.80;40.90
39493;DHT22;25176;51.060;3.720;2023-06-10T10:01:34;40.80;40.50
39493;DHT22;25176;51.060;3.720;2023-06-10T10:04:00;43.20;39.40
39493;DHT22;25176;51.060;3.720;2023-06-10T10:06:26;39.80;40.80
39493;DHT22;25176;51.060;3.720;2023-06-10T10:08:52;38.50;41.60
39493;DHT22;25176;51.060;3.720;2023-06-10T10:11:19;40.80;40.80
39493;DHT22;25176;51.060;3.720;2023-06-10T10:13:45;42.60;39.80
39493;DHT22;25176;51.060;3.720;2023-06-10T10:16:17;41.50;40.10
39493;DHT22;25176;51.060;3.720;2023-06-10T10:18:59;44.00;39.20
39493;DHT22;25176;51.060;3.720;2023-06-10T10:21:27;42.70;39.10
39493;DHT22;25176;51.060;3.720;2023-06-10T10:24:05;43.40;38.40
39493;DHT22;25176;51.060;3.720;2023-06-10T10:26:33;42.50;38.40
39493;DHT22;25176;51.060;3.720;2023-06-10T10:29:14;41.90;39.60
39493;DHT22;25176;51.060;3.720;2023-06-10T10:31:42;41.90;38.40
39493;DHT22;25176;51.060;3.720;2023-06-10T10:34:12;40.10;39.80
39493;DHT22;25176;51.060;3.720;2023-06-10T10:36:38;38.90;40.50
39493;DHT22;25176;51.060;3.720;2023-06-10T10:39:04;39.70;40.50
39493;DHT22;25176;51.060;3.720;2023-06-10T10:41:30;39.90;40.30
39493;DHT22;25176;51.060;3.720;2023-06-10T10:43:56;40.20;39.40
39493;DHT22;25176;51.060;3.720;2023-06-10T10:46:23;38.90;40.20
39493;DHT22;25176;51.060;3.720;2023-06-10T10:48:52;37.90;40.60
39493;DHT22;25176;51.060;3.720;2023-06-10T10:51:18;36.30;42.10
39493;DHT22;25176;51.060;3.720;2023-06-10T10:53:44;36.10;42.30
39493;DHT22;25176;51.060;3.720;2023-06-10T10:56:16;35.50;41.90
39493;DHT22;25176;51.060;3.720;2023-06-10T10:59:02;35.40;42.60
39493;DHT22;25176;51.060;3.720;2023-06-10T11:01:28;34.80;42.80
39493;DHT22;25176;51.060;3.720;2023-06-10T11:04:06;33.70;43.70
39493;DHT22;25176;51.060;3.720;2023-06-10T11:06:32;33.00;44.00
39493;DHT22;25176;51.060;3.720;2023-06-10T11:08:57;32.30;44.80
39493;DHT22;25176;51.060;3.720;2023-06-10T11:11:25;31.90;45.10
39493;DHT22;25176;51.060;3.720;2023-06-10T11:14:05;32.00;44.30
39493;DHT22;25176;51.060;3.720;2023-06-10T11:16:41;31.60;45.60
39493;DHT22;25176;51.060;3.720;2023-06-10T11:19:07;31.40;45.80
39493;DHT22;25176;51.060;3.720;2023-06-10T11:21:36;31.30;45.10
39493;DHT22;25176;51.060;3.720;2023-06-10T11:24:11;31.20;45.20
39493;DHT22;25176;51.060;3.720;2023-06-10T11:26:43;31.20;45.10
39493;DHT22;25176;51.060;3.720;2023-06-10T11:29:08;31.10;45.60
39493;DHT22;25176;51.060;3.720;2023-06-10T11:31:44;31.10;45.70
39493;DHT22;25176;51.060;3.720;2023-06-10T11:34:10;30.90;45.60
39493;DHT22;25176;51.060;3.720;2023-06-10T11:36:37;31.20;45.70
39493;DHT22;25176;51.060;3.720;2023-06-10T11:39:06;31.30;45.10
39493;DHT22;25176;51.060;3.720;2023-06-10T11:41:32;31.10;44.90
39493;DHT22;25176;51.060;3.720;2023-06-10T11:44:02;30.80;43.60
39493;DHT22;25176;51.060;3.720;2023-06-10T11:46:27;30.90;44.30
39493;DHT22;25176;51.060;3.720;2023-06-10T11:48:54;30.80;44.40
39493;DHT22;25176;51.060;3.720;2023-06-10T11:51:19;31.00;44.50
39493;DHT22;25176;51.060;3.720;2023-06-10T11:53:48;31.10;44.40
39493;DHT22;25176;51.060;3.720;2023-06-10T11:56:23;31.10;44.70
39493;DHT22;25176;51.060;3.720;2023-06-10T11:58:53;31.10;44.70
39493;DHT22;25176;51.060;3.720;2023-06-10T12:01:23;31.40;44.40
39493;DHT22;25176;51.060;3.720;2023-06-10T12:04:08;31.30;43.00
39493;DHT22;25176;51.060;3.720;2023-06-10T12:09:05;31.30;43.40
39493;DHT22;25176;51.060;3.720;2023-06-10T12:11:31;31.10;43.90
39493;DHT22;25176;51.060;3.720;2023-06-10T12:13:57;31.20;44.10
39493;DHT22;25176;51.060;3.720;2023-06-10T12:16:22;31.40;44.10
39493;DHT22;25176;51.060;3.720;2023-06-10T12:18:48;31.50;44.50
39493;DHT22;25176;51.060;3.720;2023-06-10T12:21:23;31.30;44.00
39493;DHT22;25176;51.060;3.720;2023-06-10T12:26:34;31.40;42.90
39493;DHT22;25176;51.060;3.720;2023-06-10T12:29:01;31.20;42.40
39493;DHT22;25176;51.060;3.720;2023-06-10T12:31:27;31.30;43.00
39493;DHT22;25176;51.060;3.720;2023-06-10T12:34:07;31.40;43.30
39493;DHT22;25176;51.060;3.720;2023-06-10T12:36:33;31.20;43.50
39493;DHT22;25176;51.060;3.720;2023-06-10T12:39:03;31.30;43.70
39493;DHT22;25176;51.060;3.720;2023-06-10T12:41:29;31.20;43.40
39493;DHT22;25176;51.060;3.720;2023-06-10T12:43:54;31.20;43.90
39493;DHT22;25176;51.060;3.720;2023-06-10T12:46:20;31.30;43.60
39493;DHT22;25176;51.060;3.720;2023-06-10T12:48:51;31.30;43.90
39493;DHT22;25176;51.060;3.720;2023-06-10T12:51:17;31.40;44.10
39493;DHT22;25176;51.060;3.720;2023-06-10T12:53:43;31.40;43.60
39493;DHT22;25176;51.060;3.720;2023-06-10T12:56:09;31.40;43.90
39493;DHT22;25176;51.060;3.720;2023-06-10T12:58:35;31.60;43.80
39493;DHT22;25176;51.060;3.720;2023-06-10T13:01:00;31.40;43.70
39493;DHT22;25176;51.060;3.720;2023-06-10T13:03:26;31.10;44.20
39493;DHT22;25176;51.060;3.720;2023-06-10T13:05:51;31.20;44.10
39493;DHT22;25176;51.060;3.720;2023-06-10T13:08:18;31.20;43.70
39493;DHT22;25176;51.060;3.720;2023-06-10T13:10:43;31.10;43.70
39493;DHT22;25176;51.060;3.720;2023-06-10T13:13:09;31.10;43.90
39493;DHT22;25176;51.060;3.720;2023-06-10T13:15:35;31.00;44.00
39493;DHT22;25176;51.060;3.720;2023-06-10T13:18:03;31.10;43.90
39493;DHT22;25176;51.060;3.720;2023-06-10T13:20:29;31.20;44.10
39493;DHT22;25176;51.060;3.720;2023-06-10T13:22:55;31.20;44.00
39493;DHT22;25176;51.060;3.720;2023-06-10T13:25:20;31.50;43.80
39493;DHT22;25176;51.060;3.720;2023-06-10T13:27:46;31.50;43.40
39493;DHT22;25176;51.060;3.720;2023-06-10T13:30:12;31.40;43.10
39493;DHT22;25176;51.060;3.720;2023-06-10T13:32:37;31.10;43.50
39493;DHT22;25176;51.060;3.720;2023-06-10T13:35:03;31.10;43.40
39493;DHT22;25176;51.060;3.720;2023-06-10T13:37:29;31.10;43.10
39493;DHT22;25176;51.060;3.720;2023-06-10T13:39:54;31.20;43.70
39493;DHT22;25176;51.060;3.720;2023-06-10T13:42:20;31.40;43.70
39493;DHT22;25176;51.060;3.720;2023-06-10T13:44:46;31.60;43.60
39493;DHT22;25176;51.060;3.720;2023-06-10T13:47:13;31.60;42.90
39493;DHT22;25176;51.060;3.720;2023-06-10T13:49:38;31.30;43.30
39493;DHT22;25176;51.060;3.720;2023-06-10T13:52:04;31.30;43.50
39493;DHT22;25176;51.060;3.720;2023-06-10T13:54:29;31.40;43.60
39493;DHT22;25176;51.060;3.720;2023-06-10T13:56:57;31.30;43.80
39493;DHT22;25176;51.060;3.720;2023-06-10T13:59:25;31.30;43.40
39493;DHT22;25176;51.060;3.720;2023-06-10T14:01:51;31.30;43.70
39493;DHT22;25176;51.060;3.720;2023-06-10T14:04:16;31.40;43.90
39493;DHT22;25176;51.060;3.720;2023-06-10T14:06:42;31.30;43.90
39493;DHT22;25176;51.060;3.720;2023-06-10T14:09:07;31.30;43.90
39493;DHT22;25176;51.060;3.720;2023-06-10T14:11:33;31.40;44.00
39493;DHT22;25176;51.060;3.720;2023-06-10T14:13:58;31.30;44.40
39493;DHT22;25176;51.060;3.720;2023-06-10T14:16:26;31.40;43.90
39493;DHT22;25176;51.060;3.720;2023-06-10T14:18:51;31.50;43.90
39493;DHT22;25176;51.060;3.720;2023-06-10T14:21:17;31.50;44.00
39493;DHT22;25176;51.060;3.720;2023-06-10T14:23:42;31.40;44.20
39493;DHT22;25176;51.060;3.720;2023-06-10T14:26:11;31.40;44.00
39493;DHT22;25176;51.060;3.720;2023-06-10T14:28:37;31.40;44.10
39493;DHT22;25176;51.060;3.720;2023-06-10T14:31:03;31.40;43.90
39493;DHT22;25176;51.060;3.720;2023-06-10T14:33:28;31.40;44.30
39493;DHT22;25176;51.060;3.720;2023-06-10T14:35:56;31.40;43.90
39493;DHT22;25176;51.060;3.720;2023-06-10T14:38:21;31.30;43.80
39493;DHT22;25176;51.060;3.720;2023-06-10T14:40:47;31.30;44.20
39493;DHT22;25176;51.060;3.720;2023-06-10T14:43:12;31.40;43.90
39493;DHT22;25176;51.060;3.720;2023-06-10T14:45:41;31.50;44.00
39493;DHT22;25176;51.060;3.720;2023-06-10T14:48:06;31.50;43.60
39493;DHT22;25176;51.060;3.720;2023-06-10T14:50:32;31.50;44.00
39493;DHT22;25176;51.060;3.720;2023-06-10T14:52:58;31.30;43.80
39493;DHT22;25176;51.060;3.720;2023-06-10T14:55:24;31.40;43.80
39493;DHT22;25176;51.060;3.720;2023-06-10T14:57:49;31.10;43.80
39493;DHT22;25176;51.060;3.720;2023-06-10T15:00:15;31.20;44.20
39493;DHT22;25176;51.060;3.720;2023-06-10T15:02:44;31.40;44.00
39493;DHT22;25176;51.060;3.720;2023-06-10T15:05:10;31.40;43.60
39493;DHT22;25176;51.060;3.720;2023-06-10T15:07:35;31.40;43.50
39493;DHT22;25176;51.060;3.720;2023-06-10T15:10:01;31.30;43.60
39493;DHT22;25176;51.060;3.720;2023-06-10T15:12:26;31.20;43.60
39493;DHT22;25176;51.060;3.720;2023-06-10T15:14:53;31.20;44.00
39493;DHT22;25176;51.060;3.720;2023-06-10T15:17:18;31.30;43.70
39493;DHT22;25176;51.060;3.720;2023-06-10T15:19:44;31.30;43.70
39493;DHT22;25176;51.060;3.720;2023-06-10T15:22:09;31.20;44.30
39493;DHT22;25176;51.060;3.720;2023-06-10T15:24:36;31.30;43.80
39493;DHT22;25176;51.060;3.720;2023-06-10T15:27:02;31.10;43.60
39493;DHT22;25176;51.060;3.720;2023-06-10T15:29:27;31.00;43.70
39493;DHT22;25176;51.060;3.720;2023-06-10T15:31:53;30.90;43.80
39493;DHT22;25176;51.060;3.720;2023-06-10T15:34:19;31.00;43.90
39493;DHT22;25176;51.060;3.720;2023-06-10T15:36:44;31.00;43.90
39493;DHT22;25176;51.060;3.720;2023-06-10T15:39:10;31.10;44.20